sensor_id;sensor_type;location;lat;lon;timestamp;temperature;humidity
50690;DHT22;71367;48.298;11.238;2023-07-13T00:07:20;18.60;99.90
50690;DHT22;71367;48.298;11.238;2023-07-13T00:22:25;18.50;99.90
50690;DHT22;71367;48.298;11.238;2023-07-13T00:37:29;18.50;99.90
50690;DHT22;71367;48.298;11.238;2023-07-13T00:52:50;18.50;99.90
50690;DHT22;71367;48.298;11.238;2023-07-13T01:55:08;18.50;99.90
50690;DHT22;71367;48.298;11.238;2023-07-13T02:25:54;18.30;99.90
50690;DHT22;71367;48.298;11.238;2023-07-13T02:40:57;18.20;99.90
50690;DHT22;71367;48.298;11.238;2023-07-13T02:56:01;18.10;99.90
50690;DHT22;71367;48.298;11.238;2023-07-13T03:11:06;18.10;99.90
50690;DHT22;71367;48.298;11.238;2023-07-13T03:26:16;18.00;99.90
50690;DHT22;71367;48.298;11.238;2023-07-13T03:41:23;17.80;99.90
50690;DHT22;71367;48.298;11.238;2023-07-13T03:56:33;17.70;99.90
50690;DHT22;71367;48.298;11.238;2023-07-13T04:11:38;17.60;99.90
50690;DHT22;71367;48.298;11.238;2023-07-13T04:26:42;17.60;99.90
50690;DHT22;71367;48.298;11.238;2023-07-13T04:41:45;17.40;99.90
50690;DHT22;71367;48.298;11.238;2023-07-13T04:56:48;17.50;99.90
50690;DHT22;71367;48.298;11.238;2023-07-13T05:11:50;17.50;99.90
50690;DHT22;71367;48.298;11.238;2023-07-13T05:26:53;17.60;99.90
50690;DHT22;71367;48.298;11.238;2023-07-13T05:41:55;17.70;99.90
50690;DHT22;71367;48.298;11.238;2023-07-13T05:56:58;18.00;99.90
50690;DHT22;71367;48.298;11.238;2023-07-13T06:12:01;18.40;99.90
50690;DHT22;71367;48.298;11.238;2023-07-13T06:27:05;18.80;99.70
50690;DHT22;71367;48.298;11.238;2023-07-13T06:42:08;19.00;97.60
50690;DHT22;71367;48.298;11.238;2023-07-13T06:57:11;19.00;97.30
50690;DHT22;71367;48.298;11.238;2023-07-13T07:12:14;19.20;96.10
50690;DHT22;71367;48.298;11.238;2023-07-13T07:42:49;18.50;96.20
50690;DHT22;71367;48.298;11.238;2023-07-13T07:57:52;18.20;95.70
50690;DHT22;71367;48.298;11.238;2023-07-13T08:44:32;19.70;91.90
50690;DHT22;71367;48.298;11.238;2023-07-13T09:30:51;20.90;84.90
50690;DHT22;71367;48.298;11.238;2023-07-13T10:01:36;21.60;80.90
50690;DHT22;71367;48.298;11.238;2023-07-13T10:32:22;23.90;68.60
50690;DHT22;71367;48.298;11.238;2023-07-13T11:02:56;23.70;57.10
50690;DHT22;71367;48.298;11.238;2023-07-13T11:18:20;23.20;59.10
50690;DHT22;71367;48.298;11.238;2023-07-13T11:33:50;24.80;57.10
50690;DHT22;71367;48.298;11.238;2023-07-13T11:48:54;24.90;51.70
50690;DHT22;71367;48.298;11.238;2023-07-13T12:03:57;25.10;54.10
50690;DHT22;71367;48.298;11.238;2023-07-13T12:19:00;25.70;52.30
50690;DHT22;71367;48.298;11.238;2023-07-13T12:34:07;25.10;53.70
50690;DHT22;71367;48.298;11.238;2023-07-13T12:49:13;26.10;50.50
50690;DHT22;71367;48.298;11.238;2023-07-13T13:04:16;26.90;50.30
50690;DHT22;71367;48.298;11.238;2023-07-13T13:19:21;26.80;50.80
50690;DHT22;71367;48.298;11.238;2023-07-13T13:34:25;26.00;49.20
50690;DHT22;71367;48.298;11.238;2023-07-13T13:49:29;26.20;50.20
50690;DHT22;71367;48.298;11.238;2023-07-13T14:04:32;26.10;51.20
50690;DHT22;71367;48.298;11.238;2023-07-13T14:19:34;26.50;51.30
50690;DHT22;71367;48.298;11.238;2023-07-13T14:34:36;28.70;48.90
50690;DHT22;71367;48.298;11.238;2023-07-13T14:49:40;27.80;50.00
50690;DHT22;71367;48.298;11.238;2023-07-13T15:04:44;27.10;47.90
50690;DHT22;71367;48.298;11.238;2023-07-13T15:19:47;27.60;49.60
50690;DHT22;71367;48.298;11.238;2023-07-13T15:34:49;28.50;46.20
50690;DHT22;71367;48.298;11.238;2023-07-13T15:49:52;27.90;46.70
50690;DHT22;71367;48.298;11.238;2023-07-13T16:04:55;27.40;46.30
50690;DHT22;71367;48.298;11.238;2023-07-13T16:19:57;27.50;45.40
50690;DHT22;71367;48.298;11.238;2023-07-13T16:35:00;26.80;46.70
50690;DHT22;71367;48.298;11.238;2023-07-13T16:50:04;26.50;46.60
50690;DHT22;71367;48.298;11.238;2023-07-13T17:05:11;26.00;48.30
50690;DHT22;71367;48.298;11.238;2023-07-13T17:20:20;26.30;48.90
50690;DHT22;71367;48.298;11.238;2023-07-13T17:35:24;25.00;52.20
50690;DHT22;71367;48.298;11.238;2023-07-13T17:50:30;24.40;55.50
50690;DHT22;71367;48.298;11.238;2023-07-13T18:05:33;24.70;56.30
50690;DHT22;71367;48.298;11.238;2023-07-13T18:20:37;24.50;58.40
50690;DHT22;71367;48.298;11.238;2023-07-13T18:35:40;24.10;60.40
50690;DHT22;71367;48.298;11.238;2023-07-13T18:50:42;23.40;63.20
50690;DHT22;71367;48.298;11.238;2023-07-13T19:05:45;22.80;65.10
50690;DHT22;71367;48.298;11.238;2023-07-13T19:20:49;22.20;68.00
50690;DHT22;71367;48.298;11.238;2023-07-13T19:35:53;21.50;70.40
50690;DHT22;71367;48.298;11.238;2023-07-13T19:50:55;21.00;72.30
50690;DHT22;71367;48.298;11.238;2023-07-13T20:05:57;20.40;75.20
50690;DHT22;71367;48.298;11.238;2023-07-13T20:21:00;19.80;78.30
50690;DHT22;71367;48.298;11.238;2023-07-13T20:36:05;19.30;81.10
50690;DHT22;71367;48.298;11.238;2023-07-13T20:51:09;18.90;85.00
50690;DHT22;71367;48.298;11.238;2023-07-13T21:06:15;18.50;90.70
50690;DHT22;71367;48.298;11.238;2023-07-13T21:21:22;18.40;91.30
50690;DHT22;71367;48.298;11.238;2023-07-13T21:36:26;18.50;90.90
50690;DHT22;71367;48.298;11.238;2023-07-13T21:51:29;18.50;91.70
50690;DHT22;71367;48.298;11.238;2023-07-13T22:06:32;18.40;93.60
50690;DHT22;71367;48.298;11.238;2023-07-13T22:21:34;18.40;93.20
50690;DHT22;71367;48.298;11.238;2023-07-13T22:36:37;18.30;93.80
50690;DHT22;71367;48.298;11.238;2023-07-13T22:51:39;18.30;93.80
50690;DHT22;71367;48.298;11.238;2023-07-13T23:06:43;18.20;94.50
50690;DHT22;71367;48.298;11.238;2023-07-13T23:21:47;18.20;94.80
50690;DHT22;71367;48.298;11.238;2023-07-13T23:36:51;18.00;95.50
50690;DHT22;71367;48.298;11.238;2023-07-13T23:51:56;17.90;96.40
